createdAt,value
2019-05-06T00:02:43.575Z,66.15
2019-05-06T00:06:52.008Z,66.34
2019-05-06T00:11:00.259Z,66.61
2019-05-06T00:15:08.160Z,66.74
2019-05-06T00:19:16.082Z,66.89
2019-05-06T00:23:39.002Z,66.83
2019-05-06T00:28:06.152Z,67.21
2019-05-06T00:32:15.044Z,67.39
2019-05-06T00:36:23.753Z,67.75
2019-05-06T00:40:35.659Z,67.98
2019-05-06T00:44:44.302Z,67.98
2019-05-06T00:48:54.193Z,67.70
2019-05-06T00:53:04.625Z,68.02
2019-05-06T00:57:13.967Z,68.14
2019-05-06T01:01:27.007Z,68.35
2019-05-06T01:05:33.755Z,68.60
2019-05-06T01:09:43.827Z,68.81
2019-05-06T01:14:06.046Z,68.60
2019-05-06T01:18:14.260Z,68.59
2019-05-06T01:22:24.500Z,68.77
2019-05-06T01:26:33.726Z,68.89
2019-05-06T01:30:44.374Z,69.08
2019-05-06T01:34:53.673Z,69.15
2019-05-06T01:39:28.196Z,68.93
2019-05-06T01:43:36.925Z,68.64
2019-05-06T01:47:44.542Z,68.41
2019-05-06T01:51:54.614Z,67.94
2019-05-06T01:56:03.653Z,67.76
2019-05-06T02:00:14.064Z,67.87
2019-05-06T02:04:24.310Z,67.57
2019-05-06T02:08:33.702Z,66.66
2019-05-06T02:12:41.330Z,66.83
2019-05-06T02:16:49.422Z,66.11
2019-05-06T02:21:02.409Z,65.43
2019-05-06T02:25:14.299Z,65.77
2019-05-06T02:29:24.813Z,66.03
2019-05-06T02:33:37.956Z,66.20
2019-05-06T02:37:46.723Z,66.10
2019-05-06T02:41:55.733Z,66.17
2019-05-06T02:46:04.624Z,65.76
2019-05-06T02:50:15.319Z,66.19
2019-05-06T02:54:23.629Z,66.45
2019-05-06T02:58:33.022Z,66.37
2019-05-06T03:02:44.914Z,66.01
2019-05-06T03:06:53.278Z,65.88
2019-05-06T03:11:03.630Z,65.31
2019-05-06T03:15:16.227Z,65.46
2019-05-06T03:19:24.361Z,65.66
2019-05-06T03:23:35.469Z,65.51
2019-05-06T03:27:46.977Z,65.47
2019-05-06T03:31:56.352Z,65.63
2019-05-06T03:36:15.436Z,65.52
2019-05-06T03:40:14.573Z,65.50
2019-05-06T03:44:23.937Z,65.52
2019-05-06T03:48:35.358Z,65.90
2019-05-06T03:52:45.076Z,66.11
2019-05-06T03:56:55.601Z,66.17
2019-05-06T04:01:03.958Z,66.76
2019-05-06T04:05:13.295Z,66.80
2019-05-06T04:09:24.078Z,67.11
2019-05-06T04:13:33.172Z,67.06
2019-05-06T04:18:03.638Z,67.08
2019-05-06T04:22:48.076Z,67.13
2019-05-06T04:27:06.502Z,67.03
2019-05-06T04:31:14.925Z,66.69
2019-05-06T04:35:23.193Z,66.38
2019-05-06T04:39:33.002Z,65.92
2019-05-06T04:43:43.840Z,64.74
2019-05-06T04:47:53.506Z,65.80
2019-05-06T04:52:03.663Z,65.91
2019-05-06T04:56:14.129Z,65.60
2019-05-06T05:00:23.247Z,65.86
2019-05-06T05:04:32.785Z,66.17
2019-05-06T05:08:42.573Z,65.76
2019-05-06T05:13:03.370Z,66.00
2019-05-06T05:17:25.305Z,64.74
2019-05-06T05:21:32.983Z,64.74
2019-05-06T05:25:42.625Z,63.85
2019-05-06T05:29:52.227Z,64.16
2019-05-06T05:34:02.112Z,64.16
2019-05-06T05:38:09.883Z,63.40
2019-05-06T05:42:27.525Z,63.60
2019-05-06T05:46:35.427Z,64.06
2019-05-06T05:50:45.165Z,64.06
2019-05-06T05:54:55.582Z,63.85
2019-05-06T05:59:03.301Z,61.05
2019-05-06T06:03:12.928Z,59.55
2019-05-06T06:07:22.918Z,57.15
2019-05-06T06:12:08.245Z,57.31
2019-05-06T06:16:44.749Z,54.74
2019-05-06T06:21:17.334Z,55.05
2019-05-06T06:25:14.189Z,54.11
2019-05-06T06:29:22.791Z,53.33
2019-05-06T06:33:32.965Z,52.04
2019-05-06T06:38:02.629Z,52.34
2019-05-06T06:42:09.886Z,52.14
2019-05-06T06:46:18.636Z,51.12
2019-05-06T06:50:26.330Z,51.44
2019-05-06T06:54:34.561Z,49.65
2019-05-06T06:59:02.544Z,50.35
2019-05-06T07:03:32.710Z,49.85
2019-05-06T07:07:47.144Z,47.87
2019-05-06T07:11:52.580Z,46.31
2019-05-06T07:16:02.783Z,45.93
2019-05-06T07:20:13.234Z,47.82
2019-05-06T07:24:22.852Z,48.12
2019-05-06T07:28:32.673Z,47.10
2019-05-06T07:32:42.381Z,46.28
2019-05-06T07:36:49.772Z,45.48
2019-05-06T07:41:14.892Z,43.48
2019-05-06T07:45:42.240Z,43.48
2019-05-06T07:49:53.144Z,44.73
2019-05-06T07:54:02.839Z,46.20
2019-05-06T07:58:13.571Z,45.43
2019-05-06T08:02:22.848Z,44.98
2019-05-06T08:06:32.169Z,47.08
2019-05-06T08:10:42.251Z,46.09
2019-05-06T08:14:49.743Z,46.04
2019-05-06T08:18:59.291Z,47.25
2019-05-06T08:23:27.298Z,47.34
2019-05-06T08:27:35.601Z,47.86
2019-05-06T08:31:43.821Z,49.71
2019-05-06T08:35:54.540Z,48.76
2019-05-06T08:40:03.355Z,47.26
2019-05-06T08:44:12.747Z,49.13
2019-05-06T08:48:21.998Z,50.91
2019-05-06T08:52:43.899Z,49.21
2019-05-06T08:56:52.414Z,48.07
2019-05-06T09:01:06.970Z,50.61
2019-05-06T09:05:15.453Z,48.99
2019-05-06T09:09:24.717Z,48.25
2019-05-06T09:13:32.844Z,50.33
2019-05-06T09:17:42.061Z,52.19
2019-05-06T09:21:50.119Z,54.18
2019-05-06T09:25:57.907Z,53.16
2019-05-06T09:30:14.220Z,54.13
2019-05-06T09:34:37.276Z,54.81
2019-05-06T09:38:44.898Z,55.46
2019-05-06T09:42:53.220Z,55.27
2019-05-06T09:47:02.437Z,53.60
2019-05-06T09:51:13.098Z,55.24
2019-05-06T09:55:34.021Z,51.80
2019-05-06T09:59:42.159Z,47.95
2019-05-06T10:03:49.982Z,51.77
2019-05-06T10:07:57.912Z,50.52
2019-05-06T10:12:05.723Z,52.84
2019-05-06T10:16:13.600Z,54.63
2019-05-06T10:20:22.348Z,54.43
2019-05-06T10:24:32.259Z,55.48
2019-05-06T10:28:52.378Z,55.58
2019-05-06T10:33:02.165Z,54.88
2019-05-06T10:37:44.002Z,53.81
2019-05-06T10:42:13.237Z,54.19
2019-05-06T10:46:22.517Z,51.33
2019-05-06T10:50:35.103Z,43.72
2019-05-06T10:54:42.794Z,43.30
2019-05-06T10:58:52.778Z,39.59
2019-05-06T11:03:19.406Z,38.73
2019-05-06T11:07:31.278Z,45.70
2019-05-06T11:11:38.685Z,45.70
2019-05-06T11:15:46.942Z,47.61
2019-05-06T11:19:54.797Z,43.93
2019-05-06T11:24:05.984Z,46.81
2019-05-06T11:28:43.816Z,50.38
2019-05-06T11:33:04.858Z,52.00
2019-05-06T11:37:27.989Z,50.98
2019-05-06T11:41:36.300Z,52.84
2019-05-06T11:45:46.559Z,52.69
2019-05-06T11:49:56.686Z,49.96
2019-05-06T11:54:16.497Z,47.33
2019-05-06T11:58:32.680Z,47.65
2019-05-06T12:02:44.253Z,45.01
2019-05-06T12:06:52.614Z,49.40
2019-05-06T12:10:59.895Z,52.52
2019-05-06T12:15:08.488Z,52.06
2019-05-06T12:19:16.249Z,51.43
2019-05-06T12:23:24.214Z,45.88
2019-05-06T12:27:47.528Z,41.63
2019-05-06T12:32:14.319Z,42.57
2019-05-06T12:36:22.924Z,42.57
2019-05-06T12:40:32.438Z,43.35
2019-05-06T12:44:41.438Z,43.31
2019-05-06T12:48:52.151Z,46.04
2019-05-06T12:53:01.111Z,48.36
2019-05-06T12:57:12.617Z,50.20
2019-05-06T13:01:20.991Z,50.53
2019-05-06T13:05:28.917Z,52.30
2019-05-06T13:09:36.744Z,53.43
2019-05-06T13:13:56.596Z,54.14
2019-05-06T13:17:55.179Z,53.96
2019-05-06T13:22:03.961Z,54.49
2019-05-06T13:26:13.201Z,55.56
2019-05-06T13:30:22.827Z,56.03
2019-05-06T13:34:33.324Z,55.80
2019-05-06T13:38:42.639Z,55.12
2019-05-06T13:43:08.264Z,55.34
2019-05-06T13:47:25.842Z,54.95
2019-05-06T13:51:35.154Z,52.40
2019-05-06T13:55:42.996Z,52.18
2019-05-06T13:59:53.260Z,53.03
2019-05-06T14:04:03.752Z,53.56
2019-05-06T14:08:13.042Z,54.98
2019-05-06T14:12:22.095Z,54.82
2019-05-06T14:16:33.294Z,55.29
2019-05-06T14:20:42.769Z,53.57
2019-05-06T14:25:09.124Z,54.37
2019-05-06T14:29:23.506Z,54.76
2019-05-06T14:33:32.282Z,54.32
2019-05-06T14:37:42.171Z,54.65
2019-05-06T14:41:53.434Z,53.86
2019-05-06T14:46:01.737Z,53.89
2019-05-06T14:50:14.191Z,53.47
2019-05-06T14:54:21.720Z,53.51
2019-05-06T14:58:29.073Z,54.48
2019-05-06T15:02:37.399Z,54.09
2019-05-06T15:06:45.198Z,51.57
2019-05-06T15:10:53.745Z,51.64
2019-05-06T15:15:03.845Z,51.42
2019-05-06T15:19:12.886Z,51.83
2019-05-06T15:23:22.430Z,51.91
2019-05-06T15:27:30.014Z,52.18
2019-05-06T15:31:57.189Z,51.96
2019-05-06T15:36:12.896Z,52.47
2019-05-06T15:40:31.886Z,53.43
2019-05-06T15:44:35.260Z,53.74
2019-05-06T15:48:42.079Z,53.84
2019-05-06T15:52:53.621Z,54.00
2019-05-06T15:57:00.614Z,54.45
2019-05-06T16:01:08.516Z,55.15
2019-05-06T16:05:20.097Z,56.05
2019-05-06T16:09:26.096Z,57.67
2019-05-06T16:13:34.097Z,59.82
2019-05-06T16:17:42.689Z,61.03
2019-05-06T16:21:52.352Z,61.84
2019-05-06T16:26:02.814Z,62.22
2019-05-06T16:30:13.128Z,61.65
2019-05-06T16:34:22.760Z,60.65
2019-05-06T16:38:32.349Z,61.11
2019-05-06T16:42:45.345Z,61.61
2019-05-06T16:46:52.141Z,61.14
2019-05-06T16:50:59.987Z,63.71
2019-05-06T16:55:11.607Z,70.27
2019-05-06T16:59:19.447Z,74.51
2019-05-06T17:03:42.840Z,75.78
2019-05-06T17:07:52.591Z,74.73
2019-05-06T17:12:04.294Z,75.04
2019-05-06T17:16:10.487Z,75.85
2019-05-06T17:20:19.069Z,76.24
2019-05-06T17:24:26.821Z,80.82
2019-05-06T17:28:44.254Z,81.15
2019-05-06T17:32:55.358Z,82.10
2019-05-06T17:37:13.181Z,81.96
2019-05-06T17:41:23.728Z,80.54
2019-05-06T17:46:01.082Z,81.37
2019-05-06T17:49:59.656Z,80.03
2019-05-06T17:54:08.449Z,78.44
2019-05-06T17:58:16.530Z,79.05
2019-05-06T18:02:25.516Z,80.24
2019-05-06T18:06:33.535Z,78.33
2019-05-06T18:10:42.673Z,78.46
2019-05-06T18:14:53.381Z,78.48
2019-05-06T18:19:03.135Z,79.86
2019-05-06T18:23:12.890Z,79.07
2019-05-06T18:27:22.623Z,80.83
2019-05-06T18:31:30.389Z,80.72
2019-05-06T18:35:38.365Z,79.57
2019-05-06T18:39:46.117Z,78.82
2019-05-06T18:43:53.789Z,80.03
2019-05-06T18:48:02.781Z,78.31
2019-05-06T18:52:12.980Z,79.07
2019-05-06T18:56:19.738Z,77.30
2019-05-06T19:00:28.228Z,79.13
2019-05-06T19:04:42.195Z,77.69
2019-05-06T19:08:56.231Z,76.86
2019-05-06T19:13:03.715Z,77.08
2019-05-06T19:17:13.174Z,77.13
2019-05-06T19:21:24.233Z,76.99
2019-05-06T19:25:33.973Z,77.30
2019-05-06T19:29:38.923Z,77.59
2019-05-06T19:33:46.393Z,77.37
2019-05-06T19:37:54.166Z,74.53
2019-05-06T19:42:04.704Z,74.62
2019-05-06T19:46:12.084Z,76.72
2019-05-06T19:50:23.549Z,77.04
2019-05-06T19:54:29.536Z,76.79
2019-05-06T19:58:37.379Z,76.22
2019-05-06T20:02:44.925Z,75.68
2019-05-06T20:07:02.624Z,76.39
2019-05-06T20:11:25.534Z,77.39
2019-05-06T20:15:37.540Z,74.92
2019-05-06T20:19:45.425Z,74.91
2019-05-06T20:23:53.318Z,76.52
2019-05-06T20:28:02.369Z,77.40
2019-05-06T20:32:12.149Z,77.70
2019-05-06T20:36:22.394Z,76.52
2019-05-06T20:40:32.438Z,78.24
2019-05-06T20:44:39.142Z,76.79
2019-05-06T20:48:47.562Z,76.75
2019-05-06T20:52:55.778Z,76.98
2019-05-06T20:57:03.691Z,78.04
2019-05-06T21:01:11.336Z,78.54
2019-05-06T21:05:19.205Z,78.83
2019-05-06T21:09:26.937Z,78.00
2019-05-06T21:13:35.753Z,76.70
2019-05-06T21:17:44.222Z,77.60
2019-05-06T21:21:52.721Z,77.52
2019-05-06T21:26:03.204Z,76.33
2019-05-06T21:30:13.080Z,76.35
2019-05-06T21:34:22.324Z,76.60
2019-05-06T21:38:30.591Z,75.71
2019-05-06T21:42:38.389Z,76.08
2019-05-06T21:46:46.305Z,76.45
2019-05-06T21:50:54.369Z,76.06
2019-05-06T21:55:02.626Z,75.84
2019-05-06T21:59:12.945Z,75.23
2019-05-06T22:03:22.802Z,74.77
2019-05-06T22:07:30.495Z,74.00
2019-05-06T22:11:38.511Z,74.46
2019-05-06T22:15:46.909Z,74.95
2019-05-06T22:19:55.159Z,74.05
2019-05-06T22:24:04.793Z,75.49
2019-05-06T22:28:12.609Z,75.86
2019-05-06T22:32:20.084Z,75.86
2019-05-06T22:36:27.542Z,75.90
2019-05-06T22:40:35.635Z,75.61
2019-05-06T22:44:44.883Z,76.09
2019-05-06T22:48:54.559Z,76.17
2019-05-06T22:53:02.380Z,76.69
2019-05-06T22:57:12.031Z,77.32
2019-05-06T23:01:47.992Z,76.67
2019-05-06T23:05:56.039Z,76.27
2019-05-06T23:10:04.934Z,76.30
2019-05-06T23:14:27.627Z,76.57
2019-05-06T23:18:24.400Z,76.74
2019-05-06T23:22:32.536Z,76.29
2019-05-06T23:26:40.261Z,75.91
2019-05-06T23:30:48.583Z,75.29
2019-05-06T23:34:56.373Z,74.78
2019-05-06T23:39:58.161Z,74.95
2019-05-06T23:44:45.964Z,74.89
2019-05-06T23:49:26.792Z,76.09
2019-05-06T23:54:12.609Z,76.27
2019-05-06T23:58:18.253Z,76.87
